createdAt,value
2019-03-23T00:00:34.614Z,7.98
2019-03-23T00:01:34.528Z,7.95
2019-03-23T00:02:34.506Z,7.94
2019-03-23T00:03:34.419Z,7.97
2019-03-23T00:04:34.368Z,8.00
2019-03-23T00:05:34.313Z,8.00
2019-03-23T00:06:34.289Z,8.03
2019-03-23T00:07:34.205Z,8.08
2019-03-23T00:08:34.149Z,8.15
2019-03-23T00:09:34.094Z,8.13
2019-03-23T00:10:34.042Z,8.16
2019-03-23T00:11:34.029Z,8.24
2019-03-23T00:12:33.936Z,8.24
2019-03-23T00:13:33.881Z,8.23
2019-03-23T00:14:33.827Z,8.28
2019-03-23T00:15:33.777Z,8.24
2019-03-23T00:16:33.752Z,8.26
2019-03-23T00:17:33.704Z,8.10
2019-03-23T00:18:33.611Z,8.16
2019-03-23T00:19:33.557Z,8.09
2019-03-23T00:20:33.504Z,8.03
2019-03-23T00:21:33.450Z,7.97
2019-03-23T00:22:33.430Z,7.95
2019-03-23T00:23:33.343Z,7.90
2019-03-23T00:24:33.285Z,7.91
2019-03-23T00:25:33.233Z,7.85
2019-03-23T00:26:33.207Z,7.77
2019-03-23T00:27:33.126Z,7.80
2019-03-23T00:28:33.071Z,7.79
2019-03-23T00:29:33.019Z,7.76
2019-03-23T00:30:32.962Z,7.75
2019-03-23T00:31:32.952Z,7.67
2019-03-23T00:32:32.854Z,7.69
2019-03-23T00:33:32.799Z,7.57
2019-03-23T00:34:32.745Z,7.61
2019-03-23T00:35:32.693Z,7.66
2019-03-23T00:36:41.036Z,7.57
2019-03-23T00:37:32.583Z,7.58
2019-03-23T00:38:32.530Z,7.66
2019-03-23T00:39:32.478Z,7.60
2019-03-23T00:40:32.422Z,7.47
2019-03-23T00:41:32.401Z,7.51
2019-03-23T00:42:32.310Z,7.56
2019-03-23T00:43:32.257Z,7.47
2019-03-23T00:44:32.204Z,7.42
2019-03-23T00:45:32.154Z,7.51
2019-03-23T00:46:32.129Z,7.48
2019-03-23T00:47:32.039Z,7.48
2019-03-23T00:48:32.016Z,7.54
2019-03-23T00:49:31.932Z,7.58
2019-03-23T00:50:31.877Z,7.66
2019-03-23T00:51:31.853Z,7.58
2019-03-23T00:52:31.772Z,7.72
2019-03-23T00:53:31.714Z,7.60
2019-03-23T00:54:31.689Z,7.79
2019-03-23T00:55:31.606Z,7.80
2019-03-23T00:56:31.590Z,7.73
2019-03-23T00:57:31.506Z,7.88
2019-03-23T00:58:31.444Z,7.93
2019-03-23T00:59:31.387Z,7.87
2019-03-23T01:00:31.334Z,7.91
2019-03-23T01:01:31.310Z,7.98
2019-03-23T01:02:31.257Z,7.93
2019-03-23T01:03:31.170Z,7.93
2019-03-23T01:04:31.116Z,8.00
2019-03-23T01:05:31.059Z,8.05
2019-03-23T01:06:31.008Z,7.94
2019-03-23T01:07:30.981Z,8.00
2019-03-23T01:08:30.899Z,7.97
2019-03-23T01:09:30.844Z,8.06
2019-03-23T01:10:30.792Z,8.15
2019-03-23T01:11:30.768Z,8.06
2019-03-23T01:12:30.679Z,8.06
2019-03-23T01:13:30.658Z,8.12
2019-03-23T01:14:30.572Z,8.05
2019-03-23T01:15:30.517Z,8.06
2019-03-23T01:16:30.462Z,7.98
2019-03-23T01:17:30.409Z,7.98
2019-03-23T01:18:30.389Z,7.91
2019-03-23T01:19:30.302Z,7.90
2019-03-23T01:20:30.244Z,7.80
2019-03-23T01:21:30.220Z,7.77
2019-03-23T01:22:30.137Z,7.82
2019-03-23T01:23:30.082Z,7.75
2019-03-23T01:24:30.031Z,7.79
2019-03-23T01:25:29.974Z,7.79
2019-03-23T01:26:29.955Z,7.72
2019-03-23T01:27:29.863Z,7.76
2019-03-23T01:28:29.814Z,7.75
2019-03-23T01:29:29.757Z,7.73
2019-03-23T01:30:29.745Z,7.72
2019-03-23T01:31:29.650Z,7.73
2019-03-23T01:32:29.592Z,7.75
2019-03-23T01:33:29.539Z,7.76
2019-03-23T01:34:29.484Z,7.76
2019-03-23T01:35:29.459Z,7.63
2019-03-23T01:36:29.372Z,7.61
2019-03-23T01:37:29.318Z,7.61
2019-03-23T01:38:29.294Z,7.60
2019-03-23T01:39:29.208Z,7.63
2019-03-23T01:40:29.154Z,7.83
2019-03-23T01:41:29.131Z,7.76
2019-03-23T01:42:29.054Z,7.77
2019-03-23T01:43:28.992Z,7.77
2019-03-23T01:44:28.936Z,7.79
2019-03-23T01:45:28.925Z,7.82
2019-03-23T01:46:28.827Z,7.88
2019-03-23T01:47:28.778Z,7.91
2019-03-23T01:48:28.719Z,7.88
2019-03-23T01:49:28.663Z,7.77
2019-03-23T01:50:28.652Z,7.88
2019-03-23T01:51:28.555Z,7.85
2019-03-23T01:52:28.500Z,7.85
2019-03-23T01:53:28.446Z,7.88
2019-03-23T01:54:28.391Z,7.88
2019-03-23T01:55:28.369Z,7.77
2019-03-23T01:56:28.282Z,7.76
2019-03-23T01:57:28.231Z,7.77
2019-03-23T01:58:28.204Z,7.79
2019-03-23T01:59:28.116Z,7.77
2019-03-23T02:00:28.062Z,7.75
2019-03-23T02:01:28.014Z,7.79
2019-03-23T02:02:27.956Z,7.77
2019-03-23T02:03:27.932Z,7.77
2019-03-23T02:04:27.846Z,7.79
2019-03-23T02:05:27.791Z,7.75
2019-03-23T02:06:27.767Z,7.63
2019-03-23T02:07:27.683Z,7.66
2019-03-23T02:08:27.628Z,7.70
2019-03-23T02:09:27.574Z,7.67
2019-03-23T02:10:27.524Z,7.60
2019-03-23T02:11:27.494Z,7.60
2019-03-23T02:12:27.407Z,7.66
2019-03-23T02:13:27.352Z,7.66
2019-03-23T02:14:27.298Z,7.60
2019-03-23T02:15:27.250Z,7.61
2019-03-23T02:16:27.225Z,7.60
2019-03-23T02:17:27.136Z,7.43
2019-03-23T02:18:27.112Z,7.43
2019-03-23T02:19:27.033Z,7.50
2019-03-23T02:20:26.972Z,7.47
2019-03-23T02:21:26.915Z,7.47
2019-03-23T02:22:26.861Z,7.58
2019-03-23T02:23:26.838Z,7.61
2019-03-23T02:24:26.757Z,7.66
2019-03-23T02:25:26.698Z,7.73
2019-03-23T02:26:26.643Z,7.76
2019-03-23T02:27:26.606Z,7.72
2019-03-23T02:28:26.565Z,7.82
2019-03-23T02:29:26.482Z,7.76
2019-03-23T02:30:26.436Z,7.83
2019-03-23T02:31:26.370Z,7.79
2019-03-23T02:32:26.353Z,7.57
2019-03-23T02:33:26.263Z,7.58
2019-03-23T02:34:26.219Z,7.47
2019-03-23T02:35:26.156Z,7.40
2019-03-23T02:36:26.097Z,7.38
2019-03-23T02:37:27.900Z,7.39
2019-03-23T02:38:25.989Z,7.31
2019-03-23T02:39:25.949Z,7.31
2019-03-23T02:40:25.877Z,7.43
2019-03-23T02:41:25.858Z,7.31
2019-03-23T02:42:25.767Z,7.35
2019-03-23T02:43:25.736Z,7.38
2019-03-23T02:44:25.696Z,7.35
2019-03-23T02:45:25.604Z,7.35
2019-03-23T02:46:25.593Z,7.33
2019-03-23T02:47:25.496Z,7.48
2019-03-23T02:48:25.442Z,7.60
2019-03-23T02:49:25.427Z,7.79
2019-03-23T02:50:25.333Z,7.80
2019-03-23T02:51:25.315Z,7.75
2019-03-23T02:52:25.228Z,7.73
2019-03-23T02:53:25.166Z,7.58
2019-03-23T02:54:25.146Z,7.51
2019-03-23T02:55:25.058Z,7.50
2019-03-23T02:56:25.040Z,7.39
2019-03-23T02:57:24.991Z,7.35
2019-03-23T02:58:24.892Z,7.35
2019-03-23T02:59:24.837Z,7.29
2019-03-23T03:00:27.491Z,7.18
2019-03-23T03:01:24.729Z,7.14
2019-03-23T03:02:24.709Z,7.20
2019-03-23T03:03:24.618Z,7.15
2019-03-23T03:04:24.595Z,7.23
2019-03-23T03:05:24.508Z,7.18
2019-03-23T03:06:24.454Z,7.31
2019-03-23T03:07:24.399Z,7.33
2019-03-23T03:08:24.352Z,7.43
2019-03-23T03:09:24.321Z,7.48
2019-03-23T03:10:24.236Z,7.53
2019-03-23T03:11:24.180Z,7.56
2019-03-23T03:12:24.125Z,7.63
2019-03-23T03:13:24.102Z,7.56
2019-03-23T03:14:24.017Z,7.61
2019-03-23T03:15:23.961Z,7.67
2019-03-23T03:16:23.907Z,7.77
2019-03-23T03:17:23.851Z,7.79
2019-03-23T03:18:23.831Z,7.91
2019-03-23T03:19:23.773Z,7.79
2019-03-23T03:20:23.684Z,7.82
2019-03-23T03:21:23.635Z,7.80
2019-03-23T03:22:23.576Z,7.73
2019-03-23T03:23:23.529Z,7.61
2019-03-23T03:24:23.494Z,7.77
2019-03-23T03:25:23.417Z,7.61
2019-03-23T03:26:23.362Z,7.56
2019-03-23T03:27:23.335Z,7.57
2019-03-23T03:28:23.248Z,7.48
2019-03-23T03:29:23.218Z,7.54
2019-03-23T03:30:23.138Z,7.48
2019-03-23T03:31:23.085Z,7.50
2019-03-23T03:32:23.037Z,7.56
2019-03-23T03:33:22.981Z,7.48
2019-03-23T03:34:22.961Z,7.45
2019-03-23T03:35:22.904Z,7.47
2019-03-23T03:36:22.812Z,7.47
2019-03-23T03:37:22.757Z,7.45
2019-03-23T03:38:22.702Z,7.39
2019-03-23T03:39:22.647Z,7.38
2019-03-23T03:40:22.623Z,7.38
2019-03-23T03:41:22.567Z,7.38
2019-03-23T03:42:22.492Z,7.35
2019-03-23T03:43:22.448Z,7.29
2019-03-23T03:44:22.401Z,7.25
2019-03-23T03:45:22.317Z,7.21
2019-03-23T03:46:22.262Z,7.03
2019-03-23T03:47:22.214Z,7.02
2019-03-23T03:48:22.190Z,6.93
2019-03-23T03:49:22.129Z,6.88
2019-03-23T03:50:22.047Z,6.85
2019-03-23T03:51:21.988Z,6.87
2019-03-23T03:52:21.931Z,6.79
2019-03-23T03:53:21.875Z,6.79
2019-03-23T03:54:21.851Z,6.81
2019-03-23T03:55:21.769Z,6.95
2019-03-23T03:56:21.710Z,7.11
2019-03-23T03:57:21.655Z,7.06
2019-03-23T03:58:21.631Z,7.06
2019-03-23T03:59:21.559Z,7.03
2019-03-23T04:00:21.493Z,7.03
2019-03-23T04:01:21.468Z,6.95
2019-03-23T04:02:21.470Z,6.85
2019-03-23T04:03:21.330Z,6.84
2019-03-23T04:04:21.272Z,6.84
2019-03-23T04:05:21.222Z,6.84
2019-03-23T04:06:21.207Z,6.82
2019-03-23T04:07:21.110Z,6.95
2019-03-23T04:08:21.052Z,7.00
2019-03-23T04:09:20.996Z,7.00
2019-03-23T04:10:20.940Z,7.02
2019-03-23T04:11:20.920Z,7.00
2019-03-23T04:12:20.829Z,6.89
2019-03-23T04:13:20.785Z,6.93
2019-03-23T04:14:20.721Z,6.85
2019-03-23T04:15:20.669Z,6.87
2019-03-23T04:16:20.649Z,6.89
2019-03-23T04:17:20.554Z,6.81
2019-03-23T04:18:20.534Z,6.85
2019-03-23T04:19:20.446Z,6.84
2019-03-23T04:20:20.482Z,6.85
2019-03-23T04:21:20.337Z,6.85
2019-03-23T04:22:20.288Z,6.75
2019-03-23T04:23:20.257Z,6.77
2019-03-23T04:24:20.170Z,6.67
2019-03-23T04:25:20.149Z,6.75
2019-03-23T04:26:20.059Z,6.64
2019-03-23T04:27:20.004Z,6.74
2019-03-23T04:28:19.948Z,6.72
2019-03-23T04:29:19.893Z,6.74
2019-03-23T04:30:19.873Z,6.74
2019-03-23T04:31:19.789Z,6.78
2019-03-23T04:32:19.728Z,6.74
2019-03-23T04:33:19.711Z,6.64
2019-03-23T04:34:19.622Z,6.49
2019-03-23T04:35:19.562Z,6.51
2019-03-23T04:36:19.509Z,6.41
2019-03-23T04:37:19.452Z,6.45
2019-03-23T04:38:22.989Z,6.42
2019-03-23T04:39:19.341Z,6.39
2019-03-23T04:40:19.287Z,6.36
2019-03-23T04:41:19.232Z,6.30
2019-03-23T04:42:19.207Z,6.39
2019-03-23T04:43:19.121Z,6.38
2019-03-23T04:44:19.064Z,6.39
2019-03-23T04:45:19.008Z,6.26
2019-03-23T04:46:18.955Z,6.36
2019-03-23T04:47:18.938Z,6.38
2019-03-23T04:48:18.841Z,6.41
2019-03-23T04:49:18.786Z,6.41
2019-03-23T04:50:18.730Z,6.49
2019-03-23T04:51:18.690Z,6.57
2019-03-23T04:52:18.652Z,6.59
2019-03-23T04:53:18.598Z,6.69
2019-03-23T04:54:18.511Z,6.66
2019-03-23T04:55:18.453Z,6.75
2019-03-23T04:56:18.433Z,6.66
2019-03-23T04:57:18.343Z,6.66
2019-03-23T04:58:18.287Z,6.77
2019-03-23T04:59:18.233Z,6.77
2019-03-23T05:00:18.176Z,6.78
2019-03-23T05:01:18.153Z,6.77
2019-03-23T05:02:18.067Z,6.82
2019-03-23T05:03:18.010Z,6.82
2019-03-23T05:04:17.985Z,6.88
2019-03-23T05:05:17.900Z,6.89
2019-03-23T05:06:17.853Z,6.89
2019-03-23T05:07:17.834Z,6.74
2019-03-23T05:08:17.733Z,6.77
2019-03-23T05:09:17.678Z,6.70
2019-03-23T05:10:17.624Z,6.70
2019-03-23T05:11:17.568Z,6.60
2019-03-23T05:12:17.535Z,6.59
2019-03-23T05:13:17.457Z,6.56
2019-03-23T05:14:17.403Z,6.44
2019-03-23T05:15:17.384Z,6.46
2019-03-23T05:16:17.288Z,6.45
2019-03-23T05:17:17.234Z,6.46
2019-03-23T05:18:17.179Z,6.48
2019-03-23T05:19:17.124Z,6.49
2019-03-23T05:20:17.110Z,6.52
2019-03-23T05:21:17.013Z,6.57
2019-03-23T05:22:16.956Z,6.54
2019-03-23T05:23:16.901Z,6.56
2019-03-23T05:24:16.848Z,6.49
2019-03-23T05:25:16.820Z,6.51
2019-03-23T05:26:16.736Z,6.49
2019-03-23T05:27:16.713Z,6.41
2019-03-23T05:28:16.625Z,6.44
2019-03-23T05:29:16.600Z,6.44
2019-03-23T05:30:16.514Z,6.44
2019-03-23T05:31:16.492Z,6.46
2019-03-23T05:32:16.404Z,6.51
2019-03-23T05:33:16.382Z,6.46
2019-03-23T05:34:16.297Z,6.48
2019-03-23T05:35:16.238Z,6.51
2019-03-23T05:36:16.180Z,6.60
2019-03-23T05:37:16.126Z,6.52
2019-03-23T05:38:16.101Z,6.49
2019-03-23T05:39:16.016Z,6.45
2019-03-23T05:40:15.956Z,6.42
2019-03-23T05:41:15.902Z,6.41
2019-03-23T05:42:15.884Z,6.30
2019-03-23T05:43:15.791Z,6.42
2019-03-23T05:44:15.737Z,6.44
2019-03-23T05:45:15.683Z,6.45
2019-03-23T05:46:15.629Z,6.49
2019-03-23T05:47:15.606Z,6.45
2019-03-23T05:48:15.550Z,6.48
2019-03-23T05:49:15.470Z,6.54
2019-03-23T05:50:15.404Z,6.42
2019-03-23T05:51:15.353Z,6.49
2019-03-23T05:52:15.324Z,6.48
2019-03-23T05:53:15.247Z,6.46
2019-03-23T05:54:15.186Z,6.45
2019-03-23T05:55:15.129Z,6.46
2019-03-23T05:56:15.101Z,6.45
2019-03-23T05:57:15.069Z,6.42
2019-03-23T05:58:14.992Z,6.49
2019-03-23T05:59:14.907Z,6.46
2019-03-23T06:00:14.848Z,6.51
2019-03-23T06:01:14.792Z,6.60
2019-03-23T06:02:14.741Z,6.62
2019-03-23T06:03:14.714Z,6.66
2019-03-23T06:04:14.630Z,6.78
2019-03-23T06:05:14.609Z,6.84
2019-03-23T06:06:14.519Z,6.87
2019-03-23T06:07:14.463Z,6.89
2019-03-23T06:08:14.405Z,7.02
2019-03-23T06:09:14.385Z,6.99
2019-03-23T06:10:14.296Z,7.17
2019-03-23T06:11:14.239Z,7.20
2019-03-23T06:12:14.182Z,7.36
2019-03-23T06:13:14.136Z,7.40
2019-03-23T06:14:14.104Z,7.48
2019-03-23T06:15:14.018Z,7.47
2019-03-23T06:16:13.962Z,7.54
2019-03-23T06:17:13.906Z,7.53
2019-03-23T06:18:13.855Z,7.58
2019-03-23T06:19:13.832Z,7.67
2019-03-23T06:20:13.740Z,7.69
2019-03-23T06:21:13.688Z,7.67
2019-03-23T06:22:13.661Z,7.76
2019-03-23T06:23:13.579Z,7.75
2019-03-23T06:24:13.552Z,7.82
2019-03-23T06:25:13.464Z,7.75
2019-03-23T06:26:13.410Z,7.73
2019-03-23T06:27:13.357Z,7.76
2019-03-23T06:28:13.339Z,7.82
2019-03-23T06:29:13.243Z,7.72
2019-03-23T06:30:13.194Z,7.72
2019-03-23T06:31:13.136Z,7.60
2019-03-23T06:32:13.081Z,7.76
2019-03-23T06:33:13.058Z,7.75
2019-03-23T06:34:12.972Z,7.79
2019-03-23T06:35:12.917Z,7.75
2019-03-23T06:36:12.865Z,7.77
2019-03-23T06:37:12.806Z,7.75
2019-03-23T06:38:12.784Z,7.83
2019-03-23T06:39:12.700Z,7.77
2019-03-23T06:40:12.642Z,8.03
2019-03-23T06:41:12.589Z,8.08
2019-03-23T06:42:12.539Z,8.20
2019-03-23T06:43:12.517Z,8.18
2019-03-23T06:44:12.448Z,8.44
2019-03-23T06:45:12.368Z,8.46
2019-03-23T06:46:12.316Z,8.55
2019-03-23T06:47:12.297Z,8.61
2019-03-23T06:48:12.205Z,8.67
2019-03-23T06:49:12.187Z,8.66
2019-03-23T06:50:12.130Z,8.61
2019-03-23T06:51:12.048Z,8.76
2019-03-23T06:52:11.990Z,8.79
2019-03-23T06:53:11.937Z,8.92
2019-03-23T06:54:11.884Z,9.23
2019-03-23T06:55:11.865Z,9.32
2019-03-23T06:56:11.774Z,9.39
2019-03-23T06:57:11.720Z,9.43
2019-03-23T06:58:11.669Z,9.39
2019-03-23T06:59:11.652Z,9.51
2019-03-23T07:00:11.559Z,9.54
2019-03-23T07:01:11.561Z,9.55
2019-03-23T07:02:11.462Z,9.69
2019-03-23T07:03:11.400Z,9.68
2019-03-23T07:04:11.379Z,9.68
2019-03-23T07:05:11.294Z,9.76
2019-03-23T07:06:11.241Z,9.77
2019-03-23T07:07:11.190Z,9.80
2019-03-23T07:08:11.175Z,9.69
2019-03-23T07:09:16.075Z,9.72
2019-03-23T07:10:11.027Z,9.87
2019-03-23T07:11:10.976Z,9.84
2019-03-23T07:12:10.921Z,9.94
2019-03-23T07:13:10.904Z,9.95
2019-03-23T07:14:10.817Z,10.12
2019-03-23T07:15:19.530Z,10.15
2019-03-23T07:16:10.714Z,10.25
2019-03-23T07:17:10.691Z,10.30
2019-03-23T07:18:10.612Z,10.40
2019-03-23T07:19:10.564Z,10.59
2019-03-23T07:20:10.533Z,10.68
2019-03-23T07:21:10.456Z,10.61
2019-03-23T07:22:10.437Z,10.78
2019-03-23T07:23:10.344Z,10.96
2019-03-23T07:24:10.296Z,11.22
2019-03-23T07:25:10.245Z,11.45
2019-03-23T07:26:10.195Z,11.60
2019-03-23T07:27:10.174Z,11.72
2019-03-23T07:28:10.085Z,11.72
2019-03-23T07:29:10.041Z,11.69
2019-03-23T07:30:10.021Z,11.69
2019-03-23T07:31:09.937Z,11.95
2019-03-23T07:32:09.886Z,11.97
2019-03-23T07:33:09.829Z,12.00
2019-03-23T07:34:09.779Z,12.20
2019-03-23T07:35:09.774Z,12.24
2019-03-23T07:36:09.683Z,12.29
2019-03-23T07:37:09.629Z,12.27
2019-03-23T07:38:09.574Z,12.37
2019-03-23T07:39:09.523Z,12.39
2019-03-23T07:40:09.513Z,12.53
2019-03-23T07:41:09.422Z,12.62
2019-03-23T07:42:09.371Z,12.83
2019-03-23T07:43:09.321Z,12.95
2019-03-23T07:44:09.274Z,13.08
2019-03-23T07:45:09.260Z,13.18
2019-03-23T07:46:09.232Z,13.35
2019-03-23T07:47:09.119Z,13.50
2019-03-23T07:48:09.068Z,13.53
2019-03-23T07:49:09.018Z,13.59
2019-03-23T07:50:09.004Z,13.57
2019-03-23T07:51:08.916Z,13.62
2019-03-23T07:52:08.872Z,13.57
2019-03-23T07:53:08.846Z,13.72
2019-03-23T07:54:08.766Z,13.68
2019-03-23T07:55:08.715Z,13.71
2019-03-23T07:56:08.666Z,13.78
2019-03-23T07:57:08.663Z,13.87
2019-03-23T07:58:08.565Z,14.03
2019-03-23T07:59:08.517Z,14.12
2019-03-23T08:00:08.469Z,14.35
2019-03-23T08:01:08.417Z,14.50
2019-03-23T08:02:08.400Z,14.69
2019-03-23T08:03:08.318Z,14.86
2019-03-23T08:04:08.267Z,15.09
2019-03-23T08:05:08.219Z,15.59
2019-03-23T08:06:08.208Z,16.04
2019-03-23T08:07:08.124Z,16.47
2019-03-23T08:08:08.075Z,17.11
2019-03-23T08:09:08.028Z,17.60
2019-03-23T08:10:07.979Z,18.05
2019-03-23T08:11:07.972Z,18.83
2019-03-23T08:12:07.884Z,19.47
2019-03-23T08:13:07.850Z,20.13
2019-03-23T08:14:07.799Z,20.60
2019-03-23T08:15:07.756Z,21.22
2019-03-23T08:16:07.734Z,21.58
2019-03-23T08:17:07.663Z,22.10
2019-03-23T08:18:07.618Z,22.13
2019-03-23T08:19:07.609Z,22.32
2019-03-23T08:20:07.537Z,22.60
2019-03-23T08:21:07.492Z,22.80
2019-03-23T08:22:07.490Z,23.08
2019-03-23T08:23:07.417Z,23.50
2019-03-23T08:24:07.380Z,23.56
2019-03-23T08:25:07.370Z,23.56
2019-03-23T08:26:07.329Z,23.51
2019-03-23T08:27:07.261Z,23.40
2019-03-23T08:28:07.222Z,23.40
2019-03-23T08:29:07.235Z,23.63
2019-03-23T08:30:07.187Z,23.77
2019-03-23T08:31:07.113Z,23.66
2019-03-23T08:32:07.073Z,23.61
2019-03-23T08:33:07.037Z,23.74
2019-03-23T08:34:07.000Z,23.91
2019-03-23T08:35:06.997Z,23.99
2019-03-23T08:36:06.928Z,24.30
2019-03-23T08:37:06.893Z,24.69
2019-03-23T08:38:06.861Z,24.91
2019-03-23T08:39:06.820Z,24.84
2019-03-23T08:40:06.823Z,24.54
2019-03-23T08:41:06.755Z,24.26
2019-03-23T08:42:06.715Z,24.05
2019-03-23T08:43:06.679Z,23.61
2019-03-23T08:44:06.640Z,23.44
2019-03-23T08:45:06.641Z,23.40
2019-03-23T08:46:06.604Z,23.69
2019-03-23T08:47:06.545Z,24.32
2019-03-23T08:48:06.507Z,24.74
2019-03-23T08:49:06.472Z,25.13
2019-03-23T08:50:06.428Z,25.55
2019-03-23T08:51:06.444Z,25.17
2019-03-23T08:52:06.360Z,25.11
2019-03-23T08:53:06.324Z,24.95
2019-03-23T08:54:06.288Z,24.95
2019-03-23T08:55:06.286Z,25.01
2019-03-23T08:56:06.222Z,25.10
2019-03-23T08:57:06.179Z,25.08
2019-03-23T08:58:06.145Z,25.63
2019-03-23T08:59:06.108Z,25.93
2019-03-23T09:00:06.107Z,26.03
2019-03-23T09:01:06.036Z,26.28
2019-03-23T09:02:06.004Z,26.66
2019-03-23T09:03:05.980Z,27.10
2019-03-23T09:04:05.953Z,27.15
2019-03-23T09:05:05.921Z,27.21
2019-03-23T09:06:05.888Z,27.35
2019-03-23T09:07:05.824Z,27.30
2019-03-23T09:08:05.818Z,27.40
2019-03-23T09:09:05.751Z,27.21
2019-03-23T09:10:05.717Z,27.05
2019-03-23T09:11:05.671Z,27.22
2019-03-23T09:12:05.641Z,27.36
2019-03-23T09:13:05.635Z,27.70
2019-03-23T09:14:05.565Z,27.92
2019-03-23T09:15:05.529Z,28.01
2019-03-23T09:16:05.493Z,27.87
2019-03-23T09:17:05.488Z,27.78
2019-03-23T09:18:05.421Z,27.87
2019-03-23T09:19:05.387Z,28.01
2019-03-23T09:20:05.350Z,28.08
2019-03-23T09:21:05.348Z,28.15
2019-03-23T09:22:05.275Z,28.20
2019-03-23T09:23:05.239Z,27.98
2019-03-23T09:24:05.203Z,27.93
2019-03-23T09:25:05.162Z,27.93
2019-03-23T09:26:05.166Z,28.00
2019-03-23T09:27:05.092Z,28.27
2019-03-23T09:28:05.058Z,28.39
2019-03-23T09:29:05.025Z,28.60
2019-03-23T09:30:04.982Z,28.56
2019-03-23T09:31:04.991Z,28.20
2019-03-23T09:32:04.907Z,28.22
2019-03-23T09:33:04.871Z,27.90
2019-03-23T09:34:04.831Z,27.74
2019-03-23T09:35:04.801Z,27.59
2019-03-23T09:36:04.790Z,27.64
2019-03-23T09:37:04.877Z,27.35
2019-03-23T09:38:04.724Z,27.27
2019-03-23T09:39:04.648Z,27.35
2019-03-23T09:40:10.862Z,27.15
2019-03-23T09:41:04.573Z,27.02
2019-03-23T09:42:04.537Z,26.83
2019-03-23T09:43:04.534Z,26.88
2019-03-23T09:44:04.460Z,27.03
2019-03-23T09:45:04.443Z,26.78
2019-03-23T09:46:04.389Z,26.73
2019-03-23T09:47:04.347Z,26.78
2019-03-23T09:48:04.356Z,26.71
2019-03-23T09:49:04.276Z,26.73
2019-03-23T09:50:04.233Z,26.59
2019-03-23T09:51:04.197Z,26.48
2019-03-23T09:52:04.157Z,26.25
2019-03-23T09:53:04.153Z,26.16
2019-03-23T09:54:04.095Z,26.06
2019-03-23T09:55:04.074Z,25.91
2019-03-23T09:56:04.003Z,25.69
2019-03-23T09:57:03.966Z,25.50
2019-03-23T09:58:03.962Z,25.35
2019-03-23T09:59:03.920Z,25.32
2019-03-23T10:00:03.850Z,25.14
2019-03-23T10:01:03.812Z,25.01
2019-03-23T10:02:03.818Z,24.98
2019-03-23T10:03:03.739Z,24.95
2019-03-23T10:04:03.696Z,24.86
2019-03-23T10:05:03.660Z,24.84
2019-03-23T10:06:05.873Z,24.78
2019-03-23T10:07:03.620Z,24.88
2019-03-23T10:08:03.542Z,24.81
2019-03-23T10:09:03.512Z,24.91
2019-03-23T10:10:03.463Z,24.96
2019-03-23T10:11:03.430Z,24.92
2019-03-23T10:12:03.416Z,24.98
2019-03-23T10:13:03.346Z,25.01
2019-03-23T10:14:03.328Z,25.13
2019-03-23T10:15:03.270Z,25.11
2019-03-23T10:16:03.272Z,25.10
2019-03-23T10:17:03.190Z,25.14
2019-03-23T10:18:03.154Z,25.23
2019-03-23T10:19:03.117Z,25.11
2019-03-23T10:20:03.074Z,25.22
2019-03-23T10:21:03.076Z,25.36
2019-03-23T10:22:02.995Z,25.35
2019-03-23T10:23:02.960Z,25.31
2019-03-23T10:24:02.915Z,25.44
2019-03-23T10:25:02.873Z,25.46
2019-03-23T10:26:02.884Z,25.38
2019-03-23T10:27:02.836Z,25.35
2019-03-23T10:28:02.759Z,25.40
2019-03-23T10:29:02.719Z,25.43
2019-03-23T10:30:02.681Z,25.36
2019-03-23T10:31:02.638Z,25.25
2019-03-23T10:32:02.634Z,25.16
2019-03-23T10:33:02.564Z,25.16
2019-03-23T10:34:02.523Z,25.21
2019-03-23T10:35:02.482Z,25.22
2019-03-23T10:36:02.442Z,25.38
2019-03-23T10:37:02.443Z,25.25
2019-03-23T10:38:02.369Z,25.32
2019-03-23T10:39:02.329Z,25.51
2019-03-23T10:40:02.290Z,25.58
2019-03-23T10:41:02.248Z,25.58
2019-03-23T10:42:02.240Z,25.60
2019-03-23T10:43:02.166Z,25.63
2019-03-23T10:44:02.129Z,25.70
2019-03-23T10:45:02.092Z,25.70
2019-03-23T10:46:02.054Z,25.80
2019-03-23T10:47:02.079Z,25.81
2019-03-23T10:48:01.972Z,25.69
2019-03-23T10:49:01.941Z,25.80
2019-03-23T10:50:01.895Z,25.80
2019-03-23T10:51:01.857Z,25.70
2019-03-23T10:52:01.846Z,25.72
2019-03-23T10:53:01.775Z,25.72
2019-03-23T10:54:03.928Z,25.75
2019-03-23T10:55:01.706Z,25.80
2019-03-23T10:56:01.660Z,25.93
2019-03-23T10:57:01.650Z,25.96
2019-03-23T10:58:01.578Z,25.91
2019-03-23T10:59:01.543Z,26.07
2019-03-23T11:00:01.534Z,25.85
2019-03-23T11:01:01.462Z,25.88
2019-03-23T11:02:01.466Z,25.93
2019-03-23T11:03:01.386Z,26.06
2019-03-23T11:04:01.341Z,25.88
2019-03-23T11:05:01.307Z,25.93
2019-03-23T11:06:01.265Z,25.90
2019-03-23T11:07:01.270Z,26.02
2019-03-23T11:08:01.186Z,26.15
2019-03-23T11:09:01.145Z,26.09
2019-03-23T11:10:01.113Z,26.00
2019-03-23T11:11:01.071Z,26.07
2019-03-23T11:12:01.071Z,26.05
2019-03-23T11:13:00.994Z,26.03
2019-03-23T11:14:00.950Z,26.07
2019-03-23T11:15:00.913Z,25.95
2019-03-23T11:16:00.877Z,25.93
2019-03-23T11:17:00.868Z,25.95
2019-03-23T11:18:00.796Z,25.93
2019-03-23T11:19:00.757Z,25.93
2019-03-23T11:20:00.715Z,25.88
2019-03-23T11:21:00.713Z,25.80
2019-03-23T11:22:00.644Z,25.91
2019-03-23T11:23:00.601Z,25.95
2019-03-23T11:24:00.561Z,25.95
2019-03-23T11:25:00.527Z,25.93
2019-03-23T11:26:00.511Z,25.88
2019-03-23T11:27:00.443Z,25.91
2019-03-23T11:28:00.586Z,25.83
2019-03-23T11:29:00.366Z,25.80
2019-03-23T11:30:00.348Z,25.68
2019-03-23T11:31:00.292Z,25.70
2019-03-23T11:32:00.248Z,25.70
2019-03-23T11:33:00.242Z,25.60
2019-03-23T11:34:00.177Z,25.47
2019-03-23T11:35:00.234Z,25.59
2019-03-23T11:36:00.093Z,25.68
2019-03-23T11:37:00.053Z,25.62
2019-03-23T11:38:02.349Z,25.55
2019-03-23T11:39:00.013Z,25.63
2019-03-23T11:39:59.937Z,25.59
2019-03-23T11:40:59.954Z,25.51
2019-03-23T11:41:59.856Z,25.58
2019-03-23T11:42:59.820Z,25.46
2019-03-23T11:43:59.824Z,25.28
2019-03-23T11:44:59.815Z,25.03
2019-03-23T11:45:59.699Z,24.55
2019-03-23T11:46:59.673Z,24.57
2019-03-23T11:47:59.621Z,24.74
2019-03-23T11:48:59.614Z,24.92
2019-03-23T11:49:59.546Z,24.85
2019-03-23T11:50:59.507Z,24.39
2019-03-23T11:51:59.467Z,24.58
2019-03-23T11:52:59.456Z,24.73
2019-03-23T11:53:59.389Z,24.81
2019-03-23T11:54:59.383Z,24.88
2019-03-23T11:55:59.307Z,24.80
2019-03-23T11:56:59.267Z,24.99
2019-03-23T11:57:59.232Z,24.96
2019-03-23T11:58:59.220Z,24.93
2019-03-23T11:59:59.148Z,25.03
2019-03-23T12:00:59.140Z,25.07
2019-03-23T12:01:59.074Z,25.07
2019-03-23T12:02:59.035Z,25.01
2019-03-23T12:03:58.996Z,25.13
2019-03-23T12:04:58.954Z,25.10
2019-03-23T12:05:58.950Z,25.13
2019-03-23T12:06:58.873Z,25.10
2019-03-23T12:07:58.874Z,25.18
2019-03-23T12:08:58.798Z,25.16
2019-03-23T12:09:58.753Z,25.23
2019-03-23T12:11:02.903Z,25.26
2019-03-23T12:11:58.676Z,25.29
2019-03-23T12:12:58.664Z,25.32
2019-03-23T12:13:58.609Z,25.13
2019-03-23T12:14:58.591Z,24.99
2019-03-23T12:15:58.515Z,24.61
2019-03-23T12:16:58.480Z,24.54
2019-03-23T12:17:58.438Z,24.55
2019-03-23T12:18:58.432Z,24.68
2019-03-23T12:19:58.360Z,24.91
2019-03-23T12:20:58.322Z,24.93
2019-03-23T12:21:58.286Z,25.03
2019-03-23T12:22:58.280Z,25.03
2019-03-23T12:23:58.201Z,25.03
2019-03-23T12:24:58.165Z,25.01
2019-03-23T12:25:58.154Z,25.10
2019-03-23T12:26:58.083Z,25.14
2019-03-23T12:27:58.045Z,25.21
2019-03-23T12:28:58.049Z,25.16
2019-03-23T12:30:06.768Z,24.89
2019-03-23T12:30:57.927Z,25.01
2019-03-23T12:31:57.885Z,24.88
2019-03-23T12:32:57.849Z,24.89
2019-03-23T12:33:57.835Z,24.96
2019-03-23T12:34:57.764Z,24.89
2019-03-23T12:35:57.724Z,24.92
2019-03-23T12:36:57.692Z,24.92
2019-03-23T12:37:57.680Z,24.69
2019-03-23T12:38:57.612Z,24.66
2019-03-23T12:39:57.569Z,24.68
2019-03-23T12:40:57.525Z,24.76
2019-03-23T12:41:57.520Z,24.86
2019-03-23T12:42:57.448Z,24.74
2019-03-23T12:43:57.409Z,24.73
2019-03-23T12:44:57.367Z,24.68
2019-03-23T12:45:57.327Z,24.88
2019-03-23T12:46:57.324Z,25.13
2019-03-23T12:47:57.250Z,25.41
2019-03-23T12:48:57.210Z,25.62
2019-03-23T12:49:57.170Z,25.78
2019-03-23T12:50:57.138Z,25.84
2019-03-23T12:51:57.121Z,25.98
2019-03-23T12:52:57.553Z,26.18
2019-03-23T12:53:57.014Z,26.19
2019-03-23T12:54:56.969Z,25.91
2019-03-23T12:55:56.970Z,25.75
2019-03-23T12:56:56.926Z,25.59
2019-03-23T12:57:56.859Z,25.48
2019-03-23T12:58:56.813Z,25.47
2019-03-23T12:59:56.772Z,25.54
2019-03-23T13:00:56.765Z,25.41
2019-03-23T13:01:56.701Z,25.23
2019-03-23T13:02:56.691Z,25.10
2019-03-23T13:03:56.615Z,25.10
2019-03-23T13:04:56.577Z,25.10
2019-03-23T13:05:56.547Z,25.25